createdAt,value
2023-02-09T00:02:23.713Z,99790.25
2023-02-09T00:04:53.427Z,99796.09
2023-02-09T00:07:21.702Z,99790.16
2023-02-09T00:09:51.814Z,99794.38
2023-02-09T00:12:38.098Z,99790.94
2023-02-09T00:15:08.961Z,99789.31
2023-02-09T00:17:39.026Z,99789.22
2023-02-09T00:20:10.854Z,99785.75
2023-02-09T00:22:39.470Z,99782.38
2023-02-09T00:25:08.993Z,99783.16
2023-02-09T00:27:37.325Z,99777.13
2023-02-09T00:30:07.139Z,99783.81
2023-02-09T00:32:35.411Z,99782.97
2023-02-09T00:35:07.827Z,99776.16
2023-02-09T00:37:37.930Z,99771.94
2023-02-09T00:40:09.022Z,99765.94
2023-02-09T00:42:37.330Z,99773.44
2023-02-09T00:45:06.714Z,99773.34
2023-02-09T00:47:35.117Z,99769.94
2023-02-09T00:50:06.645Z,99773.28
2023-02-09T00:52:36.769Z,99766.50
2023-02-09T00:55:05.884Z,99768.13
2023-02-09T00:57:34.267Z,99766.44
2023-02-09T01:00:02.644Z,99766.41
2023-02-09T01:02:32.127Z,99768.13
2023-02-09T01:05:01.119Z,99767.19
2023-02-09T01:07:29.643Z,99759.53
2023-02-09T01:09:59.929Z,99757.06
2023-02-09T01:12:28.874Z,99757.75
2023-02-09T01:14:57.806Z,99767.84
2023-02-09T01:17:29.124Z,99760.22
2023-02-09T01:19:57.395Z,99757.69
2023-02-09T01:22:25.915Z,99751.91
2023-02-09T01:24:54.307Z,99751.72
2023-02-09T01:27:24.131Z,99755.97
2023-02-09T01:29:54.668Z,99757.53
2023-02-09T01:32:24.398Z,99751.66
2023-02-09T01:34:53.686Z,99749.94
2023-02-09T01:37:22.763Z,99745.66
2023-02-09T01:39:51.256Z,99745.66
2023-02-09T01:42:21.672Z,99744.75
2023-02-09T01:45:26.296Z,99736.28
2023-02-09T01:48:01.072Z,99746.28
2023-02-09T01:50:32.249Z,99740.13
2023-02-09T01:53:00.889Z,99743.44
2023-02-09T01:55:34.224Z,99731.72
2023-02-09T01:58:08.860Z,99735.09
2023-02-09T02:00:38.692Z,99729.91
2023-02-09T02:03:10.957Z,99718.97
2023-02-09T02:05:43.586Z,99719.78
2023-02-09T02:08:18.253Z,99717.94
2023-02-09T02:10:58.505Z,99715.50
2023-02-09T02:13:29.393Z,99709.53
2023-02-09T02:16:06.974Z,99715.34
2023-02-09T02:19:09.640Z,99716.19
2023-02-09T02:22:28.085Z,99722.88
2023-02-09T02:26:07.227Z,99721.94
2023-02-09T02:28:57.504Z,99715.97
2023-02-09T02:32:26.412Z,99721.69
2023-02-09T02:35:01.759Z,99724.22
2023-02-09T02:37:46.396Z,99725.91
2023-02-09T02:40:27.591Z,99726.00
2023-02-09T02:43:02.377Z,99727.56
2023-02-09T02:45:41.741Z,99736.09
2023-02-09T02:48:33.976Z,99735.88
2023-02-09T02:51:07.436Z,99732.44
2023-02-09T02:53:39.228Z,99733.25
2023-02-09T02:56:15.540Z,99733.91
2023-02-09T02:58:47.412Z,99722.88
2023-02-09T03:01:22.121Z,99725.28
2023-02-09T03:03:53.735Z,99723.63
2023-02-09T03:06:22.052Z,99722.63
2023-02-09T03:08:53.918Z,99725.09
2023-02-09T03:11:29.529Z,99724.97
2023-02-09T03:14:23.392Z,99729.09
2023-02-09T03:21:43.487Z,99741.47
2023-02-09T03:24:21.712Z,99734.63
2023-02-09T03:26:53.366Z,99740.41
2023-02-09T03:29:24.844Z,99731.25
2023-02-09T03:31:53.307Z,99731.16
2023-02-09T03:34:21.882Z,99731.06
2023-02-09T03:36:55.194Z,99728.66
2023-02-09T03:39:23.758Z,99727.63
2023-02-09T03:41:52.100Z,99723.47
2023-02-09T03:44:29.492Z,99726.78
2023-02-09T03:47:00.593Z,99722.56
2023-02-09T03:49:33.392Z,99722.56
2023-02-09T03:52:04.058Z,99719.81
2023-02-09T03:54:34.472Z,99728.19
2023-02-09T03:57:03.005Z,99722.41
2023-02-09T03:59:35.307Z,99718.19
2023-02-09T04:02:05.043Z,99721.50
2023-02-09T04:04:33.722Z,99710.78
2023-02-09T04:07:04.811Z,99717.72
2023-02-09T04:09:34.118Z,99725.09
2023-02-09T04:12:04.507Z,99727.50
2023-02-09T04:14:33.654Z,99730.84
2023-02-09T04:17:01.976Z,99723.19
2023-02-09T04:19:30.520Z,99730.75
2023-02-09T04:21:59.174Z,99734.91
2023-02-09T04:24:30.424Z,99732.28
2023-02-09T04:26:58.828Z,99732.16
2023-02-09T04:29:27.373Z,99737.13
2023-02-09T04:31:55.961Z,99751.41
2023-02-09T04:34:25.013Z,99750.50
2023-02-09T04:36:53.468Z,99750.34
2023-02-09T04:39:21.833Z,99748.66
2023-02-09T04:41:51.896Z,99756.13
2023-02-09T04:44:20.396Z,99747.63
2023-02-09T04:46:48.798Z,99743.41
2023-02-09T04:49:17.051Z,99746.66
2023-02-09T04:51:45.426Z,99750.94
2023-02-09T04:54:13.769Z,99753.41
2023-02-09T04:56:42.110Z,99749.09
2023-02-09T04:59:29.810Z,99749.91
2023-02-09T05:01:58.211Z,99744.84
2023-02-09T05:04:26.706Z,99752.31
2023-02-09T05:06:55.221Z,99745.56
2023-02-09T05:09:23.679Z,99738.00
2023-02-09T05:11:52.054Z,99739.63
2023-02-09T05:14:21.750Z,99731.16
2023-02-09T05:16:50.057Z,99728.56
2023-02-09T05:19:18.310Z,99730.97
2023-02-09T05:21:46.734Z,99724.13
2023-02-09T05:24:15.141Z,99723.25
2023-02-09T05:26:43.503Z,99719.09
2023-02-09T05:29:11.963Z,99724.13
2023-02-09T05:31:41.675Z,99720.72
2023-02-09T05:34:10.085Z,99709.69
2023-02-09T05:36:38.309Z,99708.88
2023-02-09T05:39:06.603Z,99708.13
2023-02-09T05:41:52.400Z,99710.53
2023-02-09T05:44:20.803Z,99713.09
2023-02-09T05:46:50.573Z,99723.16
2023-02-09T05:49:19.096Z,99718.25
2023-02-09T05:51:47.570Z,99720.63
2023-02-09T05:54:15.963Z,99724.69
2023-02-09T05:56:44.414Z,99721.13
2023-02-09T05:59:12.968Z,99718.56
2023-02-09T06:01:41.332Z,99720.06
2023-02-09T06:04:11.189Z,99718.13
2023-02-09T06:06:39.496Z,99722.16
2023-02-09T06:09:07.766Z,99725.22
2023-02-09T06:11:44.115Z,99736.94
2023-02-09T06:14:13.157Z,99731.06
2023-02-09T06:16:42.342Z,99738.88
2023-02-09T06:19:15.473Z,99736.72
2023-02-09T06:21:44.506Z,99738.41
2023-02-09T06:24:13.700Z,99744.25
2023-02-09T06:26:42.211Z,99742.44
2023-02-09T06:29:10.708Z,99740.56
2023-02-09T06:31:41.834Z,99748.91
2023-02-09T06:34:11.791Z,99755.53
2023-02-09T06:36:40.158Z,99755.78
2023-02-09T06:39:09.143Z,99758.03
2023-02-09T06:41:37.987Z,99757.88
2023-02-09T06:44:06.702Z,99771.22
2023-02-09T06:46:35.603Z,99774.44
2023-02-09T06:49:03.960Z,99777.22
2023-02-09T06:51:35.076Z,99790.78
2023-02-09T06:54:04.828Z,99792.53
2023-02-09T06:56:35.745Z,99791.72
2023-02-09T06:59:04.190Z,99785.00
2023-02-09T07:01:32.702Z,99785.88
2023-02-09T07:04:01.054Z,99789.47
2023-02-09T07:06:29.788Z,99791.13
2023-02-09T07:08:59.597Z,99794.50
2023-02-09T07:11:27.881Z,99794.44
2023-02-09T07:13:57.508Z,99792.03
2023-02-09T07:16:26.005Z,99797.72
2023-02-09T07:18:54.407Z,99790.03
2023-02-09T07:21:23.156Z,99797.63
2023-02-09T07:23:52.512Z,99806.13
2023-02-09T07:26:22.471Z,99803.63
2023-02-09T07:28:50.757Z,99808.75
2023-02-09T07:31:19.064Z,99808.94
2023-02-09T07:33:47.756Z,99807.25
2023-02-09T07:36:17.700Z,99815.91
2023-02-09T07:38:46.446Z,99818.47
2023-02-09T07:41:17.471Z,99815.91
2023-02-09T07:43:47.967Z,99819.34
2023-02-09T07:46:19.413Z,99812.78
2023-02-09T07:48:47.977Z,99802.81
2023-02-09T07:51:17.049Z,99812.09
2023-02-09T07:53:45.432Z,99803.94
2023-02-09T07:56:13.944Z,99809.75
2023-02-09T07:58:42.292Z,99809.75
2023-02-09T08:01:14.229Z,99803.31
2023-02-09T08:03:48.576Z,99805.56
2023-02-09T08:06:26.001Z,99814.84
2023-02-09T08:09:00.936Z,99808.03
2023-02-09T08:11:33.708Z,99817.31
2023-02-09T08:14:08.100Z,99806.69
2023-02-09T08:16:38.476Z,99812.59
2023-02-09T08:19:13.343Z,99811.63
2023-02-09T08:21:44.563Z,99817.69
2023-02-09T08:24:14.139Z,99815.44
2023-02-09T08:26:43.062Z,99821.56
2023-02-09T08:29:12.595Z,99821.50
2023-02-09T08:31:42.382Z,99814.03
2023-02-09T08:34:10.684Z,99809.84
2023-02-09T08:36:41.956Z,99816.53
2023-02-09T08:39:11.150Z,99809.91
2023-02-09T08:41:40.009Z,99811.88
2023-02-09T08:44:08.508Z,99808.69
2023-02-09T08:46:37.062Z,99803.97
2023-02-09T08:49:06.842Z,99810.66
2023-02-09T08:51:35.127Z,99810.97
2023-02-09T08:54:03.652Z,99808.56
2023-02-09T08:56:31.982Z,99818.75
2023-02-09T08:59:00.345Z,99823.94
2023-02-09T09:01:28.777Z,99815.50
2023-02-09T09:03:57.358Z,99818.41
2023-02-09T09:06:27.469Z,99813.50
2023-02-09T09:08:55.939Z,99817.75
2023-02-09T09:11:24.387Z,99813.97
2023-02-09T09:13:52.722Z,99808.16
2023-02-09T09:16:23.401Z,99817.38
2023-02-09T09:18:52.106Z,99798.97
2023-02-09T09:21:20.574Z,99818.50
2023-02-09T09:23:50.282Z,99823.88
2023-02-09T09:26:19.100Z,99820.50
2023-02-09T09:28:51.449Z,99823.25
2023-02-09T09:31:20.539Z,99824.34
2023-02-09T09:33:49.287Z,99837.88
2023-02-09T09:36:17.690Z,99832.91
2023-02-09T09:38:46.096Z,99832.28
2023-02-09T09:41:26.960Z,99836.56
2023-02-09T09:43:56.201Z,99842.38
2023-02-09T09:46:34.995Z,99839.16
2023-02-09T09:49:04.407Z,99832.44
2023-02-09T09:51:43.424Z,99843.28
2023-02-09T09:54:21.297Z,99832.66
2023-02-09T09:56:52.324Z,99849.00
2023-02-09T09:59:23.447Z,99845.94
2023-02-09T10:01:54.181Z,99841.06
2023-02-09T10:04:22.645Z,99835.09
2023-02-09T10:07:00.386Z,99847.72
2023-02-09T10:09:38.589Z,99857.94
2023-02-09T10:12:24.247Z,99848.75
2023-02-09T10:14:52.829Z,99846.28
2023-02-09T10:17:21.073Z,99848.19
2023-02-09T10:20:02.968Z,99841.41
2023-02-09T10:22:31.521Z,99844.00
2023-02-09T10:25:00.502Z,99836.47
2023-02-09T10:27:32.462Z,99847.81
2023-02-09T10:30:19.912Z,99842.97
2023-02-09T10:32:48.899Z,99842.97
2023-02-09T10:35:28.007Z,99843.94
2023-02-09T10:38:02.622Z,99840.63
2023-02-09T10:40:34.430Z,99838.34
2023-02-09T10:43:07.090Z,99837.56
2023-02-09T10:45:41.148Z,99837.63
2023-02-09T10:48:19.774Z,99839.56
2023-02-09T10:50:56.107Z,99834.69
2023-02-09T10:53:28.068Z,99831.34
2023-02-09T10:56:06.862Z,99821.38
2023-02-09T10:58:38.616Z,99829.81
2023-02-09T11:01:18.230Z,99823.34
2023-02-09T11:04:03.065Z,99820.81
2023-02-09T11:06:43.350Z,99820.13
2023-02-09T11:09:15.886Z,99816.06
2023-02-09T11:11:46.228Z,99809.41
2023-02-09T11:14:19.056Z,99808.84
2023-02-09T11:17:14.702Z,99813.13
2023-02-09T11:20:13.032Z,99814.81
2023-02-09T11:22:55.198Z,99815.75
2023-02-09T11:25:27.658Z,99803.25
2023-02-09T11:28:17.176Z,99797.34
2023-02-09T11:31:14.858Z,99796.59
2023-02-09T11:33:52.319Z,99787.41
2023-02-09T11:36:38.142Z,99779.25
2023-02-09T11:39:14.998Z,99777.16
2023-02-09T11:42:07.034Z,99775.88
2023-02-09T11:44:42.894Z,99764.38
2023-02-09T11:47:20.371Z,99756.25
2023-02-09T11:49:52.131Z,99750.47
2023-02-09T11:52:30.986Z,99755.78
2023-02-09T11:55:21.111Z,99759.28
2023-02-09T11:57:54.910Z,99756.84
2023-02-09T12:00:30.953Z,99756.88
2023-02-09T12:03:08.815Z,99747.69
2023-02-09T12:05:39.276Z,99750.28
2023-02-09T12:08:30.794Z,99740.09
2023-02-09T12:11:16.490Z,99733.31
2023-02-09T12:14:02.216Z,99724.00
2023-02-09T12:16:35.067Z,99729.09
2023-02-09T12:19:06.561Z,99726.53
2023-02-09T12:21:38.348Z,99715.50
2023-02-09T12:24:33.306Z,99718.88
2023-02-09T12:27:02.041Z,99719.69
2023-02-09T12:29:39.684Z,99718.84
2023-02-09T12:32:30.835Z,99729.03
2023-02-09T12:35:28.890Z,99718.75
2023-02-09T12:38:18.068Z,99715.31
2023-02-09T12:41:03.477Z,99711.00
2023-02-09T12:43:33.842Z,99716.91
2023-02-09T12:46:26.555Z,99718.63
2023-02-09T12:49:10.900Z,99712.47
2023-02-09T12:52:18.552Z,99716.59
2023-02-09T12:54:52.391Z,99718.22
2023-02-09T12:57:50.087Z,99713.06
2023-02-09T13:00:44.083Z,99715.59
2023-02-09T13:03:16.445Z,99700.19
2023-02-09T13:05:46.175Z,99702.66
2023-02-09T13:08:39.201Z,99712.56
2023-02-09T13:11:23.126Z,99704.75
2023-02-09T13:13:57.056Z,99702.06
2023-02-09T13:16:48.927Z,99707.88
2023-02-09T13:19:47.957Z,99712.16
2023-02-09T13:22:36.765Z,99708.41
2023-02-09T13:25:18.570Z,99704.78
2023-02-09T13:27:49.497Z,99699.50
2023-02-09T13:30:28.265Z,99707.63
2023-02-09T13:33:06.919Z,99698.69
2023-02-09T13:35:43.838Z,99701.81
2023-02-09T13:38:18.762Z,99702.59
2023-02-09T13:40:50.946Z,99706.97
2023-02-09T13:43:27.573Z,99712.72
2023-02-09T13:45:58.268Z,99713.94
2023-02-09T13:48:29.368Z,99708.41
2023-02-09T13:51:00.350Z,99717.72
2023-02-09T13:53:31.635Z,99710.22
2023-02-09T13:56:01.964Z,99715.50
2023-02-09T13:58:35.265Z,99711.13
2023-02-09T14:01:08.112Z,99707.31
2023-02-09T14:03:56.990Z,99711.88
2023-02-09T14:06:34.786Z,99706.53
2023-02-09T14:09:05.881Z,99704.41
2023-02-09T14:11:43.032Z,99704.00
2023-02-09T14:14:17.219Z,99714.59
2023-02-09T14:16:53.474Z,99708.94
2023-02-09T14:19:27.767Z,99712.66
2023-02-09T14:21:56.251Z,99710.28
2023-02-09T14:24:25.900Z,99716.06
2023-02-09T14:26:59.295Z,99720.13
2023-02-09T14:29:30.724Z,99724.56
2023-02-09T14:32:01.840Z,99725.88
2023-02-09T14:34:38.887Z,99728.75
2023-02-09T14:37:30.831Z,99731.19
2023-02-09T14:40:04.467Z,99731.56
2023-02-09T14:42:39.244Z,99732.69
2023-02-09T14:45:33.059Z,99729.50
2023-02-09T14:48:01.391Z,99729.84
2023-02-09T14:50:30.360Z,99731.88
2023-02-09T14:53:07.201Z,99738.13
2023-02-09T14:55:40.548Z,99739.75
2023-02-09T14:58:20.794Z,99744.13
2023-02-09T15:00:50.373Z,99739.31
2023-02-09T15:03:18.721Z,99734.94
2023-02-09T15:05:48.495Z,99740.28
2023-02-09T15:08:21.111Z,99741.78
2023-02-09T15:10:54.094Z,99745.06
2023-02-09T15:13:24.129Z,99749.91
2023-02-09T15:15:52.378Z,99745.53
2023-02-09T15:18:22.708Z,99752.13
2023-02-09T15:20:51.454Z,99747.41
2023-02-09T15:23:20.213Z,99741.69
2023-02-09T15:25:48.960Z,99749.28
2023-02-09T15:28:28.396Z,99743.28
2023-02-09T15:30:58.213Z,99746.91
2023-02-09T15:33:27.962Z,99748.91
2023-02-09T15:35:59.513Z,99750.75
2023-02-09T15:38:29.562Z,99758.56
2023-02-09T15:41:15.579Z,99751.78
2023-02-09T15:44:02.700Z,99759.97
2023-02-09T15:46:47.673Z,99757.47
2023-02-09T15:49:16.000Z,99768.88
2023-02-09T15:51:44.517Z,99762.09
2023-02-09T15:54:18.000Z,99773.28
2023-02-09T15:56:46.381Z,99773.59
2023-02-09T15:59:19.958Z,99775.72
2023-02-09T16:01:51.114Z,99783.13
2023-02-09T16:04:19.664Z,99787.13
2023-02-09T16:06:51.762Z,99787.44
2023-02-09T16:09:24.872Z,99780.69
2023-02-09T16:11:53.355Z,99788.75
2023-02-09T16:14:27.550Z,99789.16
2023-02-09T16:16:56.102Z,99798.72
2023-02-09T16:19:24.806Z,99788.53
2023-02-09T16:21:58.176Z,99797.16
2023-02-09T16:24:31.911Z,99799.81
2023-02-09T16:27:01.105Z,99798.22
2023-02-09T16:29:30.800Z,99787.25
2023-02-09T16:31:59.130Z,99795.97
2023-02-09T16:34:27.563Z,99800.34
2023-02-09T16:36:58.636Z,99810.72
2023-02-09T16:39:26.930Z,99808.22
2023-02-09T16:41:55.280Z,99809.16
2023-02-09T16:44:26.638Z,99813.50
2023-02-09T16:46:58.816Z,99814.47
2023-02-09T16:49:37.831Z,99816.25
2023-02-09T16:52:15.089Z,99821.47
2023-02-09T16:54:47.343Z,99818.13
2023-02-09T16:57:18.743Z,99823.34
2023-02-09T16:59:47.390Z,99827.66
2023-02-09T17:02:36.457Z,99818.38
2023-02-09T17:05:18.090Z,99825.22
2023-02-09T17:07:54.439Z,99829.56
2023-02-09T17:10:26.173Z,99832.19
2023-02-09T17:12:58.621Z,99837.34
2023-02-09T17:15:31.560Z,99845.06
2023-02-09T17:18:06.450Z,99847.69
2023-02-09T17:20:42.312Z,99843.50
2023-02-09T17:23:16.458Z,99855.47
2023-02-09T17:25:45.616Z,99843.53
2023-02-09T17:28:14.730Z,99847.88
2023-02-09T17:30:43.864Z,99842.78
2023-02-09T17:33:23.747Z,99852.22
2023-02-09T17:36:23.686Z,99854.84
2023-02-09T17:38:42.043Z,99855.75
2023-02-09T17:41:16.477Z,99854.91
2023-02-09T17:43:45.228Z,99863.44
2023-02-09T17:46:15.905Z,99864.34
2023-02-09T17:48:46.355Z,99866.03
2023-02-09T17:51:21.031Z,99858.41
2023-02-09T17:53:50.147Z,99860.13
2023-02-09T17:56:19.379Z,99857.59
2023-02-09T17:58:48.632Z,99857.59
2023-02-09T18:01:27.000Z,99866.97
2023-02-09T18:03:59.549Z,99865.28
2023-02-09T18:06:34.514Z,99863.56
2023-02-09T18:09:03.013Z,99872.13
2023-02-09T18:11:57.100Z,99864.44
2023-02-09T18:14:27.293Z,99867.00
2023-02-09T18:16:55.935Z,99874.69
2023-02-09T18:19:26.778Z,99882.34
2023-02-09T18:21:57.252Z,99872.09
2023-02-09T18:24:28.532Z,99878.06
2023-02-09T18:26:57.028Z,99876.38
2023-02-09T18:29:29.562Z,99883.16
2023-02-09T18:31:59.932Z,99888.25
2023-02-09T18:34:30.570Z,99897.63
2023-02-09T18:36:59.095Z,99907.78
2023-02-09T18:39:27.497Z,99907.78
2023-02-09T18:41:55.799Z,99913.75
2023-02-09T18:44:29.037Z,99914.56
2023-02-09T18:47:00.311Z,99920.56
2023-02-09T18:49:30.831Z,99913.72
2023-02-09T18:51:59.520Z,99914.56
2023-02-09T18:54:29.088Z,99926.44
2023-02-09T18:56:57.814Z,99917.94
2023-02-09T18:59:30.225Z,99919.63
2023-02-09T19:01:59.987Z,99923.03
2023-02-09T19:04:29.846Z,99930.69
2023-02-09T19:06:58.324Z,99931.53
2023-02-09T19:09:26.743Z,99940.03
2023-02-09T19:11:55.401Z,99938.34
2023-02-09T19:14:38.986Z,99936.59
2023-02-09T19:17:10.858Z,99946.75
2023-02-09T19:19:40.555Z,99944.19
2023-02-09T19:22:10.095Z,99952.69
2023-02-09T19:24:38.638Z,99953.50
2023-02-09T19:27:09.489Z,99958.59
2023-02-09T19:29:41.244Z,99954.28
2023-02-09T19:32:09.836Z,99958.53
2023-02-09T19:34:42.984Z,99961.06
2023-02-09T19:37:14.035Z,99959.31
2023-02-09T19:39:52.073Z,99957.56
2023-02-09T19:42:21.626Z,99960.06
2023-02-09T19:44:50.570Z,99956.63
2023-02-09T19:47:25.651Z,99962.50
2023-02-09T19:49:56.444Z,99960.78
2023-02-09T19:52:26.371Z,99951.41
2023-02-09T19:54:57.297Z,99947.84
2023-02-09T19:57:26.219Z,99951.91
2023-02-09T19:59:55.075Z,99953.50
2023-02-09T20:02:23.453Z,99961.78
2023-02-09T20:04:52.108Z,99961.69
2023-02-09T20:07:21.811Z,99960.78
2023-02-09T20:09:52.320Z,99963.16
2023-02-09T20:12:22.088Z,99956.34
2023-02-09T20:15:15.625Z,99958.03
2023-02-09T20:20:18.524Z,99962.16
2023-02-09T20:22:50.481Z,99962.22
2023-02-09T20:25:19.554Z,99953.63
2023-02-09T20:27:50.219Z,99964.66
2023-02-09T20:30:18.939Z,99956.19
2023-02-09T20:32:47.232Z,99965.34
2023-02-09T20:35:15.646Z,99971.09
2023-02-09T20:37:44.237Z,99959.81
2023-02-09T20:40:14.568Z,99962.22
2023-02-09T20:43:00.394Z,99963.06
2023-02-09T20:45:46.415Z,99965.59
2023-02-09T20:48:14.760Z,99973.25
2023-02-09T20:50:45.250Z,99980.06
2023-02-09T20:53:14.355Z,99985.22
2023-02-09T20:55:44.140Z,99992.72
2023-02-09T20:58:13.716Z,99991.94
2023-02-09T21:00:43.411Z,99990.28
2023-02-09T21:03:11.840Z,99993.56
2023-02-09T21:05:40.519Z,100001.19
2023-02-09T21:08:09.215Z,99995.19
2023-02-09T21:10:38.412Z,100001.97
2023-02-09T21:13:09.757Z,99996.84
2023-02-09T21:15:41.785Z,100003.66
2023-02-09T21:18:10.056Z,100006.25
2023-02-09T21:20:39.015Z,100007.06
2023-02-09T21:23:07.367Z,100007.94
2023-02-09T21:25:36.512Z,100005.31
2023-02-09T21:28:05.180Z,100006.16
2023-02-09T21:30:34.867Z,100015.47
2023-02-09T21:33:03.190Z,100008.63
2023-02-09T21:35:31.541Z,100007.78
2023-02-09T21:37:59.845Z,100021.34
2023-02-09T21:40:28.057Z,100019.63
2023-02-09T21:42:56.359Z,100030.56
2023-02-09T21:45:26.264Z,100024.59
2023-02-09T21:47:55.976Z,100019.50
2023-02-09T21:50:24.473Z,100035.56
2023-02-09T21:52:54.641Z,100025.38
2023-02-09T21:55:23.021Z,100032.94
2023-02-09T21:57:51.326Z,100039.63
2023-02-09T22:00:20.189Z,100035.34
2023-02-09T22:02:55.383Z,100042.09
2023-02-09T22:05:24.348Z,100049.66
2023-02-09T22:07:53.203Z,100046.91
2023-02-09T22:10:21.755Z,100048.63
2023-02-09T22:12:50.115Z,100051.09
2023-02-09T22:15:19.222Z,100051.13
2023-02-09T22:17:48.284Z,100059.47
2023-02-09T22:20:18.548Z,100053.53
2023-02-09T22:22:46.976Z,100052.63
2023-02-09T22:25:15.328Z,100054.31
2023-02-09T22:27:43.577Z,100063.56
2023-02-09T22:30:12.907Z,100060.16
2023-02-09T22:32:41.382Z,100065.16
2023-02-09T22:35:10.010Z,100065.03
2023-02-09T22:37:39.800Z,100065.78
2023-02-09T22:40:09.530Z,100071.56
2023-02-09T22:42:38.122Z,100074.00
2023-02-09T22:45:07.477Z,100073.91
2023-02-09T22:47:36.090Z,100075.56
2023-02-09T22:50:07.766Z,100084.00
2023-02-09T22:52:36.017Z,100084.00
2023-02-09T22:55:06.782Z,100080.63
2023-02-09T22:57:35.194Z,100079.72
2023-02-09T23:00:03.559Z,100078.88
2023-02-09T23:02:31.797Z,100083.94
2023-02-09T23:05:00.067Z,100077.16
2023-02-09T23:07:28.656Z,100078.72
2023-02-09T23:09:56.863Z,100081.31
2023-02-09T23:12:26.687Z,100077.78
2023-02-09T23:14:54.905Z,100078.63
2023-02-09T23:17:23.395Z,100091.22
2023-02-09T23:19:51.634Z,100093.72
2023-02-09T23:22:20.453Z,100101.34
2023-02-09T23:24:48.629Z,100092.66
2023-02-09T23:27:18.210Z,100105.25
2023-02-09T23:29:50.887Z,100097.63
2023-02-09T23:32:19.442Z,100102.63
2023-02-09T23:34:48.073Z,100105.16
2023-02-09T23:37:19.202Z,100094.91
2023-02-09T23:40:03.229Z,100091.44
2023-02-09T23:42:31.559Z,100098.09
2023-02-09T23:45:01.190Z,100102.34
2023-02-09T23:47:29.579Z,100100.66
2023-02-09T23:49:58.048Z,100098.81
2023-02-09T23:52:26.463Z,100097.03
2023-02-09T23:54:54.733Z,100106.28
2023-02-09T23:57:23.592Z,100105.19
2023-02-09T23:59:51.978Z,100104.16
